Time,TemperatureF,DewpointF,PressureIn,WindDirection,WindDirectionDegrees,WindSpeedMPH,WindSpeedGustMPH,Humidity,HourlyPrecipIn,Conditions,Clouds,dailyrainin,SoftwareType,DateUTC
2014-08-21 00:02:00,81.0,77.0,30.08,ESE,115,0.0,1.0,88,0.00,,,0.00,weatherlink.com 1.10,2014-08-21 04:02:00,
2014-08-21 00:17:00,80.7,77.0,30.09,ESE,115,0.0,1.0,88,0.00,,,0.00,weatherlink.com 1.10,2014-08-21 04:17:00,
2014-08-21 00:32:00,80.5,77.0,30.09,ESE,115,0.0,0.0,89,0.00,,,0.00,weatherlink.com 1.10,2014-08-21 04:32:00,
2014-08-21 00:47:00,80.1,77.0,30.09,ESE,115,0.0,0.0,90,0.00,,,0.00,weatherlink.com 1.10,2014-08-21 04:47:00,
2014-08-21 01:02:00,79.2,76.0,30.09,ESE,115,0.0,0.0,91,0.00,,,0.00,weatherlink.com 1.10,2014-08-21 05:02:00,
2014-08-21 01:17:00,78.7,76.0,30.08,ESE,115,0.0,0.0,92,0.00,,,0.00,weatherlink.com 1.10,2014-08-21 05:17:00,
2014-08-21 01:32:00,78.2,76.0,30.08,ESE,115,0.0,0.0,93,0.00,,,0.00,weatherlink.com 1.10,2014-08-21 05:32:00,
2014-08-21 01:47:00,77.8,76.0,30.07,ESE,115,0.0,0.0,93,0.00,,,0.00,weatherlink.com 1.10,2014-08-21 05:47:00,
2014-08-21 02:02:00,77.8,76.0,30.07,ESE,115,0.0,0.0,94,0.00,,,0.00,weatherlink.com 1.10,2014-08-21 06:02:00,
2014-08-21 02:17:00,77.9,76.0,30.07,ESE,115,0.0,0.0,95,0.00,,,0.00,weatherlink.com 1.10,2014-08-21 06:17:00,
2014-08-21 02:32:00,77.7,76.0,30.07,ESE,115,0.0,0.0,95,0.00,,,0.00,weatherlink.com 1.10,2014-08-21 06:32:00,
2014-08-21 02:47:00,77.4,76.0,30.06,ESE,115,0.0,0.0,95,0.00,,,0.00,weatherlink.com 1.10,2014-08-21 06:47:00,
2014-08-21 03:02:00,77.3,76.0,30.06,ESE,115,0.0,0.0,95,0.00,,,0.00,weatherlink.com 1.10,2014-08-21 07:02:00,
2014-08-21 03:17:00,77.4,76.0,30.07,ESE,115,0.0,0.0,95,0.00,,,0.00,weatherlink.com 1.10,2014-08-21 07:17:00,
2014-08-21 03:32:00,77.2,76.0,30.06,ESE,115,0.0,1.0,95,0.00,,,0.00,weatherlink.com 1.10,2014-08-21 07:32:00,
2014-08-21 03:47:00,76.8,75.0,30.06,ESE,115,0.0,1.0,95,0.00,,,0.00,weatherlink.com 1.10,2014-08-21 07:47:00,
2014-08-21 04:02:00,76.8,75.0,30.05,ESE,115,0.0,1.0,95,0.00,,,0.00,weatherlink.com 1.10,2014-08-21 08:02:00,
2014-08-21 04:17:00,76.6,75.0,30.05,ESE,115,0.0,1.0,96,0.00,,,0.00,weatherlink.com 1.10,2014-08-21 08:17:00,
2014-08-21 04:37:00,76.6,75.0,30.04,ESE,115,0.0,0.0,96,0.00,,,0.00,weatherlink.com 1.10,2014-08-21 08:37:00,
2014-08-21 04:47:00,76.5,75.0,30.04,ESE,115,0.0,0.0,95,0.00,,,0.00,weatherlink.com 1.10,2014-08-21 08:47:00,
2014-08-21 05:02:00,76.1,75.0,30.04,ESE,115,0.0,0.0,95,0.00,,,0.00,weatherlink.com 1.10,2014-08-21 09:02:00,
2014-08-21 05:17:00,76.0,75.0,30.04,ESE,115,0.0,0.0,96,0.00,,,0.00,weatherlink.com 1.10,2014-08-21 09:17:00,
2014-08-21 05:32:00,75.8,75.0,30.04,ESE,115,0.0,0.0,96,0.00,,,0.00,weatherlink.com 1.10,2014-08-21 09:32:00,
2014-08-21 05:47:00,75.8,75.0,30.05,ESE,115,0.0,0.0,96,0.00,,,0.00,weatherlink.com 1.10,2014-08-21 09:47:00,
2014-08-21 06:02:00,75.7,75.0,30.05,ESE,115,0.0,0.0,97,0.00,,,0.00,weatherlink.com 1.10,2014-08-21 10:02:00,
2014-08-21 06:17:00,75.7,75.0,30.05,ESE,115,0.0,0.0,97,0.00,,,0.00,weatherlink.com 1.10,2014-08-21 10:17:00,
2014-08-21 06:32:00,75.9,75.0,30.06,ESE,115,0.0,0.0,97,0.00,,,0.00,weatherlink.com 1.10,2014-08-21 10:32:00,
2014-08-21 06:47:00,75.6,74.0,30.06,ESE,115,0.0,0.0,96,0.00,,,0.00,weatherlink.com 1.10,2014-08-21 10:47:00,
2014-08-21 07:02:00,75.6,74.0,30.07,ESE,115,0.0,0.0,96,0.00,,,0.00,weatherlink.com 1.10,2014-08-21 11:02:00,
2014-08-21 07:17:00,75.7,75.0,30.08,ESE,115,0.0,0.0,96,0.00,,,0.00,weatherlink.com 1.10,2014-08-21 11:17:00,
2014-08-21 07:32:00,76.0,75.0,30.09,ESE,115,0.0,0.0,97,0.00,,,0.00,weatherlink.com 1.10,2014-08-21 11:32:00,
2014-08-21 07:47:00,76.7,76.0,30.09,ESE,115,0.0,0.0,97,0.00,,,0.00,weatherlink.com 1.10,2014-08-21 11:47:00,
2014-08-21 08:02:00,77.8,76.0,30.10,NE,42,1.0,4.0,95,0.00,,,0.00,weatherlink.com 1.10,2014-08-21 12:02:00,
2014-08-21 08:32:00,80.6,78.0,30.10,NE,45,1.0,5.0,90,0.00,,,0.00,weatherlink.com 1.10,2014-08-21 12:32:00,
2014-08-21 08:47:00,82.0,78.0,30.10,ENE,67,1.0,5.0,87,0.00,,,0.00,weatherlink.com 1.10,2014-08-21 12:47:00,
2014-08-21 09:03:00,83.0,78.0,30.10,NE,36,3.0,8.0,85,0.00,,,0.00,weatherlink.com 1.10,2014-08-21 13:03:00,
2014-08-21 09:18:00,83.9,78.0,30.10,NE,44,6.0,9.0,83,0.00,,,0.00,weatherlink.com 1.10,2014-08-21 13:18:00,
2014-08-21 09:33:00,84.6,79.0,30.11,NE,35,6.0,10.0,82,0.00,,,0.00,weatherlink.com 1.10,2014-08-21 13:33:00,
2014-08-21 09:48:00,85.5,79.0,30.11,NNE,24,5.0,8.0,81,0.00,,,0.00,weatherlink.com 1.10,2014-08-21 13:48:00,
2014-08-21 10:03:00,86.3,79.0,30.11,NNE,16,4.0,10.0,78,0.00,,,0.00,weatherlink.com 1.10,2014-08-21 14:03:00,
2014-08-21 10:18:00,86.4,78.0,30.11,NNE,32,4.0,9.0,77,0.00,,,0.00,weatherlink.com 1.10,2014-08-21 14:18:00,
2014-08-21 10:34:00,87.1,79.0,30.11,NNE,30,7.0,10.0,77,0.00,,,0.00,weatherlink.com 1.10,2014-08-21 14:34:00,
2014-08-21 10:48:00,87.6,80.0,30.11,NE,50,4.0,9.0,77,0.00,,,0.00,weatherlink.com 1.10,2014-08-21 14:48:00,
2014-08-21 11:03:00,88.2,79.0,30.11,NNE,19,5.0,9.0,75,0.00,,,0.00,weatherlink.com 1.10,2014-08-21 15:03:00,
2014-08-21 11:25:00,88.8,80.0,30.11,NNE,13,2.0,8.0,74,0.00,,,0.00,weatherlink.com 1.10,2014-08-21 15:25:00,
2014-08-21 11:33:00,89.5,80.0,30.11,NE,38,4.0,7.0,73,0.00,,,0.00,weatherlink.com 1.10,2014-08-21 15:33:00,
2014-08-21 11:48:00,89.8,80.0,30.11,NNE,30,10.0,10.0,72,0.00,,,0.00,weatherlink.com 1.10,2014-08-21 15:48:00,
2014-08-21 12:03:00,90.1,79.0,30.10,East,91,2.0,10.0,70,0.00,,,0.00,weatherlink.com 1.10,2014-08-21 16:03:00,
2014-08-21 12:18:00,90.9,79.0,30.10,NE,42,5.0,10.0,68,0.00,,,0.00,weatherlink.com 1.10,2014-08-21 16:18:00,
2014-08-21 12:33:00,91.1,78.0,30.09,ENE,76,2.0,10.0,65,0.00,,,0.00,weatherlink.com 1.10,2014-08-21 16:33:00,
2014-08-21 12:48:00,90.8,78.0,30.09,East,80,1.0,8.0,66,0.00,,,0.00,weatherlink.com 1.10,2014-08-21 16:48:00,
2014-08-21 13:03:00,91.9,77.0,30.08,NE,48,5.0,8.0,62,0.00,,,0.00,weatherlink.com 1.10,2014-08-21 17:03:00,
2014-08-21 13:18:00,92.8,76.0,30.07,West,279,4.0,7.0,58,0.00,,,0.00,weatherlink.com 1.10,2014-08-21 17:18:00,
2014-08-21 13:33:00,91.8,77.0,30.07,East,90,2.0,7.0,62,0.00,,,0.00,weatherlink.com 1.10,2014-08-21 17:33:00,
2014-08-21 13:49:00,92.7,77.0,30.06,NNE,26,3.0,11.0,61,0.00,,,0.00,weatherlink.com 1.10,2014-08-21 17:49:00,
2014-08-21 14:03:00,93.4,77.0,30.06,NNW,334,2.0,7.0,60,0.00,,,0.00,weatherlink.com 1.10,2014-08-21 18:03:00,
2014-08-21 14:18:00,93.6,76.0,30.06,West,265,1.0,8.0,57,0.00,,,0.00,weatherlink.com 1.10,2014-08-21 18:18:00,
2014-08-21 14:33:00,94.2,76.0,30.05,NNE,31,2.0,8.0,55,0.00,,,0.00,weatherlink.com 1.10,2014-08-21 18:33:00,
2014-08-21 14:48:00,94.0,78.0,30.05,East,90,5.0,8.0,59,0.00,,,0.00,weatherlink.com 1.10,2014-08-21 18:48:00,
2014-08-21 15:03:00,94.6,75.0,30.03,ENE,61,3.0,9.0,54,0.00,,,0.00,weatherlink.com 1.10,2014-08-21 19:03:00,
2014-08-21 15:18:00,94.5,76.0,30.03,East,101,2.0,6.0,56,0.00,,,0.00,weatherlink.com 1.10,2014-08-21 19:18:00,